• Join FlightAware (Why Join?)
  • Login
  • US Flag 
04:03AM EDT


 

Airport Tracker/Info


-or-


 

Live Flight TrackerFlight Track Log ✈ SWA378 ✈ 23-May-2013 ✈ KORF - KBWI

Flight Track Log - Related Links

Times and Time Zones

All times are in EDT time to prevent confusion due to time zone crossing. See the SWA378 flight status page for this flight to view local times or setup timezone preferences in your user account.

Time Position Orientation Groundspeed Altitude Reporting Facility
EDT Latitude Longitude Course Direction KTS MPH feet Rate Location/Type
10:16PM 36.8847 -76.2150 215° Southwest 154 177 800  Level Washington Center
10:17PM 36.8428 -76.2511 215° Southwest 200 230 3,200 2,580 Climbing Washington Center
10:18PM 36.8236 -76.3133 249° West 209 241 6,200 3,000 Climbing Washington Center
10:19PM 36.8272 -76.3858 274° West 212 244 9,300 1,920 Climbing Washington Center
10:20PM 36.8956 -76.4828 311° West 288 331 10,700 1,920 Climbing Washington Center
10:21PM 36.9614 -76.5797 310° West 341 392 13,800 2,580 Climbing Washington Center
10:22PM 37.0314 -76.6819 311° West 367 422 16,000 1,080 Climbing Washington Center
10:23PM 37.0953 -76.7767 310° West 387 445 16,000  Level Washington Center
10:24PM 37.1653 -76.8794 311° West 387 445 16,000  Level Washington Center
10:25PM 37.2411 -76.9953 309° West 387 445 16,000 -300 Level Washington Center
10:26PM 37.3128 -77.0986 311° West 387 445 15,500 -540 Descending Washington Center
10:27PM 37.3592 -77.2144 297° West 375 432 15,000 -300 Descending Washington Center
10:28PM 37.3994 -77.3331 293° West 370 426 15,000  Level Washington Center
10:29PM 37.5011 -77.3639 346° North 334 384 15,000  Level Washington Center
10:30PM 37.6122 -77.3325 13° North 349 402 15,000  Level Washington Center
10:31PM 37.7125 -77.3086 11° North 354 407 15,000  Level Washington Center
10:32PM 37.8150 -77.2847 10° North 359 413 15,000  Level Washington Center
10:33PM 37.9156 -77.2578 12° North 364 419 15,000  Level Washington Center
10:34PM 38.0181 -77.2311 12° North 370 426 15,000  Level Washington Center
10:35PM 38.1103 -77.2119 North 370 426 15,100  Climbing Washington Center
10:36PM 38.2189 -77.1828 12° North 383 441 15,000 -60 Descending Washington Center
10:37PM 38.3319 -77.1533 12° North 402 463 15,000 -360 Level Washington Center
10:38PM 38.4394 -77.0681 32° Northeast 402 463 14,300 -1,560 Descending Washington Center
10:39PM 38.5197 -76.9717 43° Northeast 397 457 12,000 -1,800 Descending Washington Center
10:40PM 38.5958 -76.8772 44° Northeast 391 450 10,700 -1,020 Descending Washington Center
10:41PM 38.6678 -76.7908 43° Northeast 366 421 10,000 -960 Descending Washington Center
10:42PM 38.7228 -76.7039 51° Northeast 338 389 8,800 -1,440 Descending Washington Center
10:43PM 38.7833 -76.5833 57° Northeast 310 357 6,900 -1,320 Descending Potomac TRACON
10:44PM 38.8333 -76.5167 46° Northeast 300 345 6,000 -900 Descending Potomac TRACON
10:45PM 38.9167 -76.5167 360° North 283 326 5,200 -960 Descending Potomac TRACON
10:46PM 38.9833 -76.5000 11° North 277 319 4,100 -720 Descending Potomac TRACON
10:47PM 39.0500 -76.5500 330° Northwest 230 265 3,800 -600 Descending Potomac TRACON
10:48PM 39.0833 -76.6000 311° West 184 212 2,900 -1,140 Descending Potomac TRACON
10:49PM 39.1333 -76.6333 333° Northwest 156 180 1,600 -1,260 Descending Potomac TRACON
10:50PM 39.1500 -76.6500 322° Northwest 124 143 400 -1,200 Descending Potomac TRACON
10:52PM 39.1667 -76.6667 339° North  Level FlightAware Approximate
10:59PM 39.1754 -76.6683 339° North  Level Estimated
11:00PM 39.1754 -76.6683 339° North  Level Estimated
11:01PM 39.1754 -76.6683 339° North  Level Estimated
11:02PM 39.1754 -76.6683 339° North  Level Estimated